Time;durP1;ratioP1;P1;durP2;ratioP2;P2;SDS_P1;SDS_P2;PMS_P1;PMS_P2;Temp;Humidity;BMP_temperature;BMP_pressure;BME280_temperature;BME280_humidity;BME280_pressure;Samples;Min_cycle;Max_cycle;Signal;HPM_P1;HPM_P2
2022/12/25 10:04:18;;;;;;;15.27;6.53;;;;;;;7.87;100.00;101114.00;5312232;27;1215397;-75
2022/12/25 10:07:03;;;;;;;18.57;10.37;;;;;;;7.90;100.00;101107.81;5336549;28;20565;-75
2022/12/25 10:09:43;;;;;;;20.58;12.48;;;;;;;7.87;100.00;101100.13;5337599;27;20034;-73
2022/12/25 10:12:38;;;;;;;15.47;8.07;;;;;;;7.88;100.00;101099.19;5335483;27;20031;-72
2022/12/25 10:15:43;;;;;;;23.40;13.65;;;;;;;7.90;100.00;101097.38;5333550;28;20027;-73
2022/12/25 10:18:37;;;;;;;17.23;11.10;;;;;;;7.83;100.00;101095.94;5326582;28;20626;-70
2022/12/25 10:21:13;;;;;;;16.47;8.33;;;;;;;7.98;100.00;101105.69;5335089;27;20066;-74
2022/12/25 10:23:49;;;;;;;14.77;7.13;;;;;;;8.08;100.00;101100.09;5336515;27;20027;-68
2022/12/25 10:26:24;;;;;;;17.97;13.77;;;;;;;8.02;100.00;101095.97;5334888;28;20071;-77
2022/12/25 10:29:04;;;;;;;14.80;9.53;;;;;;;8.03;100.00;101087.22;5334496;28;20023;-75
2022/12/25 10:31:38;;;;;;;18.50;12.43;;;;;;;7.94;100.00;101072.00;5336775;27;20060;-80
2022/12/25 10:34:11;;;;;;;15.35;11.68;;;;;;;8.10;100.00;101087.78;5336498;27;20031;-83
2022/12/25 10:36:45;;;;;;;13.80;7.87;;;;;;;8.13;100.00;101095.50;5336615;27;20477;-82
2022/12/25 10:39:18;;;;;;;20.63;11.13;;;;;;;8.18;100.00;101085.69;5334888;28;20024;-75
2022/12/25 10:42:07;;;;;;;16.87;10.30;;;;;;;8.25;100.00;101093.22;5332398;28;20060;-73
2022/12/25 10:44:38;;;;;;;10.67;7.00;;;;;;;8.22;100.00;101087.22;5331404;28;20019;-76
2022/12/25 10:47:09;;;;;;;19.93;10.23;;;;;;;8.15;100.00;101077.16;5333692;27;20126;-73
2022/12/25 10:49:41;;;;;;;14.97;9.93;;;;;;;8.13;100.00;101076.38;5334012;28;20027;-74
2022/12/25 10:52:22;;;;;;;15.33;8.87;;;;;;;8.09;100.00;101065.25;5332980;28;20024;-78
2022/12/25 10:54:54;;;;;;;12.23;7.73;;;;;;;7.95;100.00;101047.59;5332187;28;20028;-72
2022/12/25 10:57:27;;;;;;;10.80;5.80;;;;;;;7.95;100.00;101038.03;5334115;27;20494;-73
2022/12/25 11:00:00;;;;;;;8.83;5.57;;;;;;;7.93;100.00;101039.84;5334670;28;20031;-72
2022/12/25 11:02:38;;;;;;;11.50;5.83;;;;;;;7.94;100.00;101031.09;5333427;28;20040;-74
2022/12/25 11:05:20;;;;;;;12.27;6.70;;;;;;;7.93;100.00;101034.63;5325897;28;20039;-75
2022/12/25 11:07:54;;;;;;;12.20;7.20;;;;;;;8.09;100.00;101040.00;5317535;28;20505;-71
2022/12/25 11:10:42;;;;;;;;;;;;;;;8.18;100.00;101050.94;5333721;27;20164;-74
2022/12/25 11:13:24;;;;;;;11.80;7.10;;;;;;;8.26;100.00;101042.72;5330245;28;20277;-76
2022/12/25 11:16:05;;;;;;;10.47;7.60;;;;;;;8.25;100.00;101028.84;5303844;28;20027;-69
2022/12/25 11:18:45;;;;;;;18.40;11.73;;;;;;;8.19;100.00;101026.50;5320205;28;20036;-71
2022/12/25 11:21:23;;;;;;;11.80;7.30;;;;;;;8.16;100.00;101024.91;5310932;28;20084;-70
2022/12/25 11:24:16;;;;;;;10.70;6.90;;;;;;;8.16;100.00;101016.22;5317653;28;20032;-70
2022/12/25 11:26:50;;;;;;;16.43;6.50;;;;;;;8.03;100.00;101002.94;5319391;28;20059;-72
2022/12/25 11:29:28;;;;;;;12.63;7.28;;;;;;;8.09;100.00;100997.41;5320620;28;20028;-72
2022/12/25 11:32:02;;;;;;;14.37;7.27;;;;;;;8.01;100.00;100978.69;5320036;28;20026;-72
2022/12/25 11:34:43;;;;;;;16.15;7.88;;;;;;;8.06;100.00;100997.56;5316875;28;20358;-72
2022/12/25 11:37:19;;;;;;;13.87;7.53;;;;;;;7.92;100.00;100982.56;5317489;28;20374;-72
2022/12/25 11:39:51;;;;;;;12.63;7.67;;;;;;;7.95;100.00;100985.88;5302993;28;20050;-72
2022/12/25 11:42:33;;;;;;;11.43;7.83;;;;;;;7.98;100.00;100979.66;5319829;28;20509;-73
2022/12/25 11:45:25;;;;;;;11.43;7.00;;;;;;;7.93;100.00;100977.25;5320414;28;20433;-73
2022/12/25 11:48:11;;;;;;;16.13;9.03;;;;;;;7.74;100.00;100954.66;5317580;28;20028;-71
2022/12/25 11:50:50;;;;;;;16.13;8.20;;;;;;;7.89;100.00;100970.50;5318654;28;20044;-72
2022/12/25 11:53:33;;;;;;;15.33;9.47;;;;;;;7.87;100.00;100969.75;5319857;28;20016;-72
2022/12/25 11:56:08;;;;;;;11.67;8.00;;;;;;;7.84;100.00;100957.69;5307180;28;20031;-72
2022/12/25 11:58:47;;;;;;;15.10;8.30;;;;;;;7.82;100.00;100953.47;5319067;28;20046;-73
2022/12/25 12:01:35;;;;;;;13.60;8.63;;;;;;;7.73;100.00;100944.31;5315224;28;20016;-74
2022/12/25 12:04:17;;;;;;;13.63;9.30;;;;;;;7.72;100.00;100935.63;5317398;27;20433;-72
2022/12/25 12:07:07;;;;;;;17.07;12.27;;;;;;;7.80;100.00;100955.28;5313331;28;20042;-73
2022/12/25 12:09:50;;;;;;;13.23;9.73;;;;;;;7.85;100.00;100951.53;5317641;28;20020;-72
2022/12/25 12:12:54;;;;;;;14.23;9.87;;;;;;;7.84;100.00;100956.81;5317614;28;20088;-73
2022/12/25 12:15:33;;;;;;;14.07;10.43;;;;;;;7.99;100.00;100965.72;5318449;28;20027;-73
2022/12/25 12:18:30;;;;;;;16.73;11.17;;;;;;;8.03;100.00;100955.97;5318193;28;20027;-73
2022/12/25 12:21:08;;;;;;;16.50;12.10;;;;;;;8.01;100.00;100948.22;5290111;28;20122;-74
2022/12/25 12:23:56;;;;;;;15.57;11.30;;;;;;;8.01;100.00;100947.38;5314178;28;20039;-74
2022/12/25 12:26:29;;;;;;;13.97;11.63;;;;;;;7.96;100.00;100945.81;5318498;28;20032;-73
2022/12/25 12:29:02;;;;;;;22.90;14.40;;;;;;;7.99;100.00;100940.44;5319586;28;20389;-74
2022/12/25 12:31:43;;;;;;;22.20;13.30;;;;;;;8.02;100.00;100930.78;5319131;28;20038;-73
2022/12/25 12:34:19;;;;;;;22.43;14.10;;;;;;;7.95;100.00;100923.28;5317573;28;20019;-73
2022/12/25 12:36:58;;;;;;;19.97;13.73;;;;;;;7.93;100.00;100919.88;5316775;28;20079;-73
2022/12/25 12:39:34;;;;;;;17.40;13.07;;;;;;;8.04;100.00;100915.94;5318871;28;20059;-72
2022/12/25 12:42:14;;;;;;;14.80;13.20;;;;;;;7.98;100.00;100906.63;5318641;28;20032;-72
2022/12/25 12:44:48;;;;;;;18.07;13.23;;;;;;;8.05;100.00;100913.25;5319130;28;20413;-73
2022/12/25 12:47:36;;;;;;;17.20;14.07;;;;;;;7.99;100.00;100924.81;5318059;28;20425;-74
2022/12/25 12:50:27;;;;;;;17.37;14.47;;;;;;;8.02;100.00;100923.81;5316289;28;20076;-74
2022/12/25 12:53:00;;;;;;;27.37;21.93;;;;;;;7.98;100.00;100925.72;5317492;28;20031;-74
2022/12/25 12:55:33;;;;;;;49.67;32.73;;;;;;;7.98;100.00;100915.31;5317828;28;20040;-76
2022/12/25 12:58:05;;;;;;;97.70;78.73;;;;;;;8.05;100.00;100912.38;5318402;28;20024;-75
2022/12/25 13:00:47;;;;;;;45.23;38.63;;;;;;;8.09;100.00;100919.16;5318421;28;20641;-76
2022/12/25 13:03:40;;;;;;;24.73;20.97;;;;;;;8.07;100.00;100913.16;5316846;28;20040;-75
2022/12/25 13:06:19;;;;;;;19.20;15.27;;;;;;;8.25;100.00;100905.38;5311785;28;20020;-75
2022/12/25 13:09:24;;;;;;;19.87;14.53;;;;;;;8.28;100.00;100908.66;5317884;28;20089;-77
2022/12/25 13:11:55;;;;;;;45.20;40.65;;;;;;;8.22;100.00;100894.16;5318442;28;20114;-75
2022/12/25 13:14:27;;;;;;;26.43;21.07;;;;;;;8.20;100.00;100882.94;5318644;28;20103;-73
2022/12/25 13:16:58;;;;;;;23.97;19.23;;;;;;;8.20;100.00;100876.91;5318457;28;20466;-72
2022/12/25 13:19:29;;;;;;;19.93;17.73;;;;;;;8.10;100.00;100856.47;5318178;28;20035;-74
2022/12/25 13:22:05;;;;;;;16.23;14.07;;;;;;;8.25;100.00;100866.22;5318354;28;20489;-75
2022/12/25 13:24:38;;;;;;;14.87;13.07;;;;;;;8.26;100.00;100855.72;5316824;28;20028;-74
2022/12/25 13:27:22;;;;;;;15.03;12.77;;;;;;;8.26;100.00;100867.91;5315819;28;20410;-74
2022/12/25 13:29:53;;;;;;;17.80;14.23;;;;;;;8.29;100.00;100859.94;5315899;28;20023;-77
2022/12/25 13:32:31;;;;;;;15.97;14.27;;;;;;;8.28;100.00;100855.63;5317142;28;20032;-69
2022/12/25 13:35:02;;;;;;;22.67;18.33;;;;;;;8.26;100.00;100847.03;5315344;28;20109;-72
2022/12/25 13:37:34;;;;;;;63.70;54.20;;;;;;;8.35;100.00;100851.78;5315443;28;20492;-73
2022/12/25 13:40:12;;;;;;;27.43;24.47;;;;;;;8.29;100.00;100852.94;5309987;28;20076;-72
2022/12/25 13:42:46;;;;;;;19.37;16.67;;;;;;;8.34;100.00;100847.50;5315952;28;20036;-70
2022/12/25 13:45:21;;;;;;;19.47;17.37;;;;;;;8.27;100.00;100851.34;5315375;28;20031;-74
2022/12/25 13:47:53;;;;;;;27.60;24.67;;;;;;;8.29;100.00;100841.69;5319158;28;20496;-75
2022/12/25 13:50:30;;;;;;;26.77;21.83;;;;;;;8.29;100.00;100846.91;5319374;28;20106;-73
2022/12/25 13:53:13;;;;;;;20.10;17.67;;;;;;;8.18;100.00;100832.63;5318486;28;20028;-72
2022/12/25 13:55:51;;;;;;;20.23;15.70;;;;;;;8.19;100.00;100831.69;5318724;28;20031;-72
2022/12/25 13:58:29;;;;;;;17.83;15.93;;;;;;;8.25;100.00;100840.13;5318854;28;20024;-74
2022/12/25 14:01:02;;;;;;;16.53;14.90;;;;;;;8.21;100.00;100836.84;5318915;28;20462;-74
2022/12/25 14:03:42;;;;;;;20.00;17.90;;;;;;;8.35;100.00;100847.44;5317729;28;20094;-75
2022/12/25 14:06:13;;;;;;;22.40;20.10;;;;;;;8.40;100.00;100831.53;5318185;28;20031;-72
2022/12/25 14:08:46;;;;;;;18.83;16.83;;;;;;;8.22;100.00;100828.94;5316803;28;20035;-76
2022/12/25 14:11:21;;;;;;;17.50;15.10;;;;;;;8.26;100.00;100827.00;5317527;28;20027;-77
2022/12/25 14:14:06;;;;;;;22.30;19.92;;;;;;;8.26;100.00;100831.38;5317420;28;20068;-75
2022/12/25 14:16:42;;;;;;;18.70;16.80;;;;;;;8.06;100.00;100804.53;5317529;28;20016;-71
2022/12/25 14:19:29;;;;;;;17.67;15.87;;;;;;;8.20;100.00;100829.94;5316948;28;20032;-75
2022/12/25 14:22:09;;;;;;;17.53;15.53;;;;;;;8.13;100.00;100818.13;5317233;28;20027;-78
2022/12/25 14:24:41;;;;;;;16.70;15.13;;;;;;;8.11;100.00;100813.84;5318228;28;20028;-75
2022/12/25 14:27:22;;;;;;;19.37;15.20;;;;;;;8.21;100.00;100806.38;5316565;28;20024;-73
2022/12/25 14:29:57;;;;;;;18.10;16.20;;;;;;;8.18;100.00;100816.97;5317008;28;20062;-71
2022/12/25 14:32:32;;;;;;;18.90;16.88;;;;;;;8.22;100.00;100800.22;5316092;28;20028;-71
2022/12/25 14:35:04;;;;;;;17.00;14.43;;;;;;;8.19;100.00;100800.38;5315183;28;20034;-75
2022/12/25 14:37:37;;;;;;;16.57;14.87;;;;;;;8.19;100.00;100805.59;5316780;28;20484;-74
2022/12/25 14:40:31;;;;;;;18.27;16.43;;;;;;;8.25;100.00;100806.22;5317105;28;20103;-73
2022/12/25 14:43:05;;;;;;;17.87;16.07;;;;;;;8.25;100.00;100803.59;5315870;28;20118;-74
2022/12/25 14:45:39;;;;;;;26.90;24.20;;;;;;;8.39;100.00;100815.94;5316511;28;20024;-83
2022/12/25 14:48:20;;;;;;;24.43;22.03;;;;;;;8.44;100.00;100822.63;5315393;28;20377;-72
2022/12/25 14:51:02;;;;;;;22.80;20.40;;;;;;;8.42;100.00;100829.69;5320717;28;20028;-75
2022/12/25 14:53:40;;;;;;;25.30;22.33;;;;;;;8.50;100.00;100831.88;5321188;28;20110;-76
2022/12/25 14:56:17;;;;;;;20.63;18.33;;;;;;;8.42;100.00;100831.44;5320970;28;20035;-73
2022/12/25 14:58:54;;;;;;;17.97;14.57;;;;;;;8.42;100.00;100827.09;5320336;27;20638;-72
2022/12/25 15:01:37;;;;;;;18.67;15.27;;;;;;;8.47;100.00;100825.06;5320236;28;20102;-76
2022/12/25 15:04:08;;;;;;;15.40;13.80;;;;;;;8.57;100.00;100824.66;5318916;28;20477;-73
2022/12/25 15:06:51;;;;;;;16.13;14.53;;;;;;;8.50;100.00;100821.44;5319608;28;20085;-72
2022/12/25 15:09:23;;;;;;;26.03;14.43;;;;;;;8.62;100.00;100814.81;5319567;28;20016;-71
2022/12/25 15:11:55;;;;;;;19.60;14.17;;;;;;;8.53;100.00;100821.31;5319732;28;20458;-73
2022/12/25 15:14:26;;;;;;;16.13;14.43;;;;;;;8.65;100.00;100824.22;5319675;27;20089;-73
2022/12/25 15:17:00;;;;;;;15.93;14.23;;;;;;;8.69;100.00;100829.22;5319406;28;20016;-75
2022/12/25 15:19:35;;;;;;;22.17;19.60;;;;;;;8.69;100.00;100829.22;5322201;28;20242;-75
2022/12/25 15:22:11;;;;;;;17.23;14.60;;;;;;;8.73;100.00;100827.28;5321038;28;20019;-69
2022/12/25 15:24:42;;;;;;;16.90;13.80;;;;;;;8.59;100.00;100820.16;5299683;28;20074;-72
2022/12/25 15:27:17;;;;;;;15.87;14.10;;;;;;;8.58;100.00;100819.34;5314942;28;20478;-72
2022/12/25 15:29:49;;;;;;;15.73;14.10;;;;;;;8.68;100.00;100808.41;5299579;28;20077;-71
2022/12/25 15:32:22;;;;;;;15.10;13.50;;;;;;;8.63;100.00;100808.66;5318643;28;20035;-71
2022/12/25 15:34:53;;;;;;;15.53;13.93;;;;;;;8.57;100.00;100807.19;5301568;28;20077;-71
2022/12/25 15:37:25;;;;;;;15.90;14.23;;;;;;;8.55;100.00;100806.44;5320294;28;20299;-72
2022/12/25 15:39:56;;;;;;;16.13;14.00;;;;;;;8.57;100.00;100801.16;5321307;28;20430;-74
2022/12/25 15:42:27;;;;;;;14.07;12.67;;;;;;;8.55;100.00;100805.56;5322019;28;20016;-75
2022/12/25 15:44:59;;;;;;;13.97;12.67;;;;;;;8.55;100.00;100805.56;5321781;28;20095;-78
2022/12/25 15:47:31;;;;;;;14.70;12.27;;;;;;;8.59;100.00;100804.50;5321207;28;20031;-74
2022/12/25 15:50:03;;;;;;;14.37;13.00;;;;;;;8.69;100.00;100816.16;5319433;28;20066;-71
2022/12/25 15:52:34;;;;;;;15.33;13.53;;;;;;;8.74;100.00;100820.31;5320175;28;20047;-69
2022/12/25 15:55:06;;;;;;;15.60;14.10;;;;;;;8.76;100.00;100810.63;5317201;28;20024;-72
2022/12/25 15:57:40;;;;;;;16.67;14.90;;;;;;;8.53;100.00;100797.81;5319276;28;20047;-75
2022/12/25 16:00:16;;;;;;;17.00;15.18;;;;;;;8.59;100.00;100796.66;5314730;28;20034;-73
2022/12/25 16:02:48;;;;;;;30.90;25.07;;;;;;;8.42;100.00;100800.97;5316719;28;20604;-71
2022/12/25 16:05:20;;;;;;;21.13;18.93;;;;;;;8.52;100.00;100805.75;5318554;28;20031;-72
2022/12/25 16:07:52;;;;;;;19.53;16.77;;;;;;;8.49;100.00;100801.50;5319233;28;20097;-74
2022/12/25 16:10:23;;;;;;;19.77;17.73;;;;;;;8.51;100.00;100790.97;5319923;28;20047;-72
2022/12/25 16:12:54;;;;;;;19.47;17.43;;;;;;;8.65;100.00;100793.75;5318834;28;20031;-69
2022/12/25 16:15:26;;;;;;;22.40;18.07;;;;;;;8.54;100.00;100803.88;5320461;28;20036;-74
2022/12/25 16:17:57;;;;;;;17.60;15.90;;;;;;;8.69;100.00;100795.25;5319972;28;20036;-73
2022/12/25 16:20:28;;;;;;;17.77;15.93;;;;;;;8.66;100.00;100777.16;5319072;28;20034;-70
2022/12/25 16:22:59;;;;;;;19.80;17.70;;;;;;;8.57;100.00;100783.69;5317191;28;20059;-71
2022/12/25 16:25:31;;;;;;;21.10;19.00;;;;;;;8.74;100.00;100784.59;5318068;28;20420;-81
2022/12/25 16:28:02;;;;;;;22.13;19.83;;;;;;;8.70;100.00;100798.72;5318575;28;20096;-78
2022/12/25 16:30:33;;;;;;;23.20;20.90;;;;;;;8.72;100.00;100783.81;5318682;28;20062;-78
2022/12/25 16:33:06;;;;;;;21.23;19.03;;;;;;;8.66;100.00;100795.44;5316770;28;20501;-72
2022/12/25 16:35:37;;;;;;;21.00;18.80;;;;;;;8.52;100.00;100785.69;5318715;28;20030;-75
2022/12/25 16:38:08;;;;;;;20.90;18.07;;;;;;;8.62;100.00;100796.53;5318062;28;20559;-72
2022/12/25 16:40:40;;;;;;;21.10;18.80;;;;;;;8.76;100.00;100797.56;5317821;28;20030;-76
2022/12/25 16:43:11;;;;;;;21.70;19.40;;;;;;;8.78;100.00;100795.72;5317859;28;20107;-64
2022/12/25 16:45:42;;;;;;;21.80;19.80;;;;;;;8.67;100.00;100767.56;5318009;28;20031;-74
2022/12/25 16:48:14;;;;;;;25.83;22.00;;;;;;;8.74;100.00;100802.88;5317872;28;20026;-74
2022/12/25 16:50:45;;;;;;;23.40;20.97;;;;;;;8.62;100.00;100785.25;5317934;28;20039;-77
2022/12/25 16:53:16;;;;;;;20.80;18.70;;;;;;;8.83;100.00;100791.09;5320181;28;20510;-76
2022/12/25 16:55:47;;;;;;;20.47;18.37;;;;;;;8.84;100.00;100784.94;5319365;28;20030;-74
2022/12/25 16:58:19;;;;;;;20.43;16.67;;;;;;;8.63;100.00;100774.72;5319184;28;20020;-76
2022/12/25 17:00:50;;;;;;;19.20;17.27;;;;;;;8.55;100.00;100780.31;5317833;28;20039;-75
2022/12/25 17:03:21;;;;;;;15.63;14.03;;;;;;;8.41;100.00;100773.19;5315945;28;20079;-77
2022/12/25 17:05:52;;;;;;;15.90;14.33;;;;;;;8.39;100.00;100782.88;5317479;28;20462;-73
2022/12/25 17:08:24;;;;;;;15.70;14.07;;;;;;;8.38;100.00;100783.78;5317215;28;20088;-76
2022/12/25 17:10:55;;;;;;;17.80;15.90;;;;;;;8.47;100.00;100798.97;5313037;28;20437;-69
2022/12/25 17:13:26;;;;;;;17.13;15.27;;;;;;;8.49;100.00;100796.28;5316841;28;20020;-72
2022/12/25 17:15:58;;;;;;;35.00;31.47;;;;;;;8.69;100.00;100799.66;5316737;28;20734;-76
2022/12/25 17:18:29;;;;;;;26.57;23.03;;;;;;;8.74;100.00;100805.47;5315692;28;20432;-67
2022/12/25 17:21:00;;;;;;;19.60;17.63;;;;;;;8.80;100.00;100799.06;5314268;28;20063;-74
2022/12/25 17:23:32;;;;;;;16.13;14.43;;;;;;;8.82;100.00;100792.84;5318119;28;20082;-74
2022/12/25 17:26:04;;;;;;;16.53;14.90;;;;;;;8.83;100.00;100796.31;5317732;28;20072;-75
2022/12/25 17:28:35;;;;;;;18.50;16.60;;;;;;;8.86;100.00;100777.88;5317188;28;20023;-78
2022/12/25 17:31:09;;;;;;;18.03;16.17;;;;;;;8.80;100.00;100770.34;5316458;28;20031;-75
2022/12/25 17:33:42;;;;;;;19.00;15.20;;;;;;;8.73;100.00;100771.63;5313533;28;20058;-73
2022/12/25 17:36:16;;;;;;;23.30;20.17;;;;;;;8.56;100.00;100768.13;5317484;28;20024;-76
2022/12/25 17:38:48;;;;;;;45.80;32.72;;;;;;;8.56;100.00;100779.41;5317607;28;20020;-72
2022/12/25 17:41:20;;;;;;;50.13;36.63;;;;;;;8.55;100.00;100782.06;5315088;28;20024;-77
2022/12/25 17:43:52;;;;;;;38.63;34.37;;;;;;;8.73;100.00;100782.06;5317682;28;20035;-77
2022/12/25 17:46:26;;;;;;;36.13;32.40;;;;;;;8.73;100.00;100787.28;5317527;28;20081;-75
2022/12/25 17:48:59;;;;;;;35.67;28.00;;;;;;;8.64;100.00;100788.63;5313241;28;20023;-71
2022/12/25 17:51:31;;;;;;;58.87;36.90;;;;;;;8.63;100.00;100786.91;5318444;28;20062;-72
2022/12/25 17:54:02;;;;;;;42.33;29.20;;;;;;;8.58;100.00;100779.34;5316442;28;20775;-70
2022/12/25 17:56:34;;;;;;;32.93;24.10;;;;;;;8.50;100.00;100779.69;5318686;28;20036;-72
2022/12/25 17:59:08;;;;;;;31.90;24.13;;;;;;;8.63;100.00;100772.09;5315324;28;20030;-70
2022/12/25 18:01:39;;;;;;;23.38;20.63;;;;;;;8.48;100.00;100768.50;5307274;28;20024;-68
2022/12/25 18:04:11;;;;;;;25.57;20.63;;;;;;;8.57;100.00;100764.59;5314939;28;20474;-69
2022/12/25 18:06:42;;;;;;;28.77;24.03;;;;;;;8.53;100.00;100765.66;5315953;28;20035;-69
2022/12/25 18:09:13;;;;;;;36.97;29.60;;;;;;;8.53;100.00;100766.50;5312014;28;20064;-69
2022/12/25 18:11:45;;;;;;;31.63;28.33;;;;;;;8.70;100.00;100770.84;5313639;28;20027;-68
2022/12/25 18:14:16;;;;;;;24.33;20.80;;;;;;;8.61;100.00;100763.50;5315314;28;20380;-71
2022/12/25 18:16:47;;;;;;;23.60;21.10;;;;;;;8.73;100.00;100758.56;5318290;28;20050;-71
2022/12/25 18:19:19;;;;;;;26.00;23.20;;;;;;;8.80;100.00;100767.72;5311703;28;20084;-74
2022/12/25 18:21:50;;;;;;;25.20;22.10;;;;;;;8.74;100.00;100763.72;5304759;28;20032;-72
2022/12/25 18:24:21;;;;;;;21.10;18.83;;;;;;;8.85;100.00;100770.13;5301371;28;20036;-71
2022/12/25 18:26:53;;;;;;;20.90;18.30;;;;;;;8.87;100.00;100773.47;5315209;28;20033;-72
2022/12/25 18:29:24;;;;;;;19.97;17.87;;;;;;;8.86;100.00;100767.41;5307788;28;20425;-72
2022/12/25 18:31:55;;;;;;;19.27;17.27;;;;;;;8.93;100.00;100781.00;5313179;28;20151;-72
2022/12/25 18:34:26;;;;;;;19.70;17.67;;;;;;;8.95;100.00;100786.97;5318080;28;20051;-72
2022/12/25 18:37:01;;;;;;;21.47;18.27;;;;;;;8.95;100.00;100793.03;5319148;28;20066;-71
2022/12/25 18:39:33;;;;;;;21.13;19.00;;;;;;;8.97;100.00;100789.50;5319448;28;20050;-72
2022/12/25 18:44:54;;;;;;;24.60;21.60;;;;;;;8.98;100.00;100796.41;5296998;28;20032;-69
2022/12/25 18:47:25;;;;;;;24.37;21.87;;;;;;;9.01;100.00;100796.22;5296893;28;20466;-67
2022/12/25 18:49:56;;;;;;;21.97;19.57;;;;;;;8.95;100.00;100789.59;5301839;28;20062;-68
2022/12/25 18:52:28;;;;;;;23.60;19.97;;;;;;;9.00;100.00;100794.56;5319739;28;20055;-67
2022/12/25 18:54:59;;;;;;;22.37;19.77;;;;;;;9.00;100.00;100794.56;5318790;28;20032;-67
2022/12/25 18:57:31;;;;;;;21.60;19.27;;;;;;;8.92;100.00;100777.53;5318731;28;20519;-68
2022/12/25 19:00:03;;;;;;;19.90;17.97;;;;;;;9.00;100.00;100786.72;5319374;28;20037;-71
2022/12/25 19:02:34;;;;;;;21.10;18.73;;;;;;;9.01;100.00;100785.78;5318486;28;20070;-69
2022/12/25 19:05:06;;;;;;;20.63;18.50;;;;;;;8.95;100.00;100779.97;5318387;28;20085;-69
2022/12/25 19:07:37;;;;;;;19.00;17.00;;;;;;;9.02;100.00;100790.09;5319387;28;20408;-68
2022/12/25 19:10:09;;;;;;;19.73;17.63;;;;;;;9.04;100.00;100777.81;5319327;28;20104;-69
2022/12/25 19:12:40;;;;;;;19.70;17.57;;;;;;;9.05;100.00;100776.88;5318743;27;20030;-71
2022/12/25 19:15:12;;;;;;;18.90;17.00;;;;;;;9.05;100.00;100776.88;5317792;28;20039;-72
2022/12/25 19:17:43;;;;;;;18.27;16.40;;;;;;;9.06;100.00;100768.09;5317865;28;20034;-71
2022/12/25 19:20:14;;;;;;;18.87;16.97;;;;;;;9.05;100.00;100761.19;5312249;28;20122;-71
2022/12/25 19:22:45;;;;;;;19.30;17.40;;;;;;;9.06;100.00;100763.72;5308913;28;20035;-72
2022/12/25 19:25:17;;;;;;;19.90;17.80;;;;;;;9.08;100.00;100772.31;5309592;28;20414;-71
2022/12/25 19:27:49;;;;;;;20.53;17.67;;;;;;;9.06;100.00;100773.31;5317622;28;20024;-70
2022/12/25 19:30:21;;;;;;;19.73;17.73;;;;;;;9.10;100.00;100779.22;5316358;28;20163;-69
2022/12/25 19:32:52;;;;;;;18.77;16.93;;;;;;;9.10;100.00;100779.22;5305113;28;20024;-69
2022/12/25 19:35:23;;;;;;;21.73;18.83;;;;;;;9.13;100.00;100789.53;5301195;28;20035;-69
2022/12/25 19:37:54;;;;;;;24.53;20.23;;;;;;;9.10;100.00;100790.53;5315383;28;20073;-68
2022/12/25 19:40:26;;;;;;;20.83;18.73;;;;;;;9.10;100.00;100790.53;5317049;28;20039;-68
2022/12/25 19:42:57;;;;;;;21.27;17.03;;;;;;;9.15;100.00;100793.72;5313121;27;20038;-69
2022/12/25 19:45:28;;;;;;;19.93;17.90;;;;;;;9.15;100.00;100780.66;5317478;28;20028;-69
2022/12/25 19:48:00;;;;;;;21.40;18.50;;;;;;;9.04;100.00;100781.25;5315152;28;20031;-68
2022/12/25 19:50:31;;;;;;;20.87;18.77;;;;;;;9.12;100.00;100793.03;5317549;28;20024;-68
2022/12/25 19:53:02;;;;;;;23.23;20.83;;;;;;;9.15;100.00;100792.88;5313504;28;20019;-68
2022/12/25 19:55:33;;;;;;;20.63;18.63;;;;;;;9.15;100.00;100795.47;5314109;28;20023;-68
2022/12/25 19:58:08;;;;;;;21.33;18.67;;;;;;;9.16;100.00;100803.22;5313298;28;20027;-71
2022/12/25 20:00:40;;;;;;;;;;;;;;;9.23;100.00;100806.38;5317554;28;20039;-70
2022/12/25 20:03:11;;;;;;;20.50;18.50;;;;;;;9.16;100.00;100795.41;5313858;28;19915;-70
2022/12/25 20:05:43;;;;;;;21.60;17.97;;;;;;;9.17;100.00;100793.63;5317941;28;20488;-70
2022/12/25 20:08:15;;;;;;;21.00;18.80;;;;;;;9.14;100.00;100794.66;5317009;28;20399;-71
2022/12/25 20:10:46;;;;;;;21.10;18.93;;;;;;;9.20;100.00;100803.91;5317375;28;20028;-70
2022/12/25 20:13:18;;;;;;;21.30;18.57;;;;;;;9.20;100.00;100804.75;5314509;28;20171;-69
2022/12/25 20:15:50;;;;;;;20.43;18.33;;;;;;;9.22;100.00;100793.38;5317683;28;20077;-70
2022/12/25 20:18:21;;;;;;;18.70;16.80;;;;;;;9.19;100.00;100803.09;5317657;28;20032;-70
2022/12/25 20:21:00;;;;;;;21.57;19.37;;;;;;;9.24;100.00;100796.75;5317285;28;20098;-69
2022/12/25 20:23:32;;;;;;;19.43;17.53;;;;;;;9.19;100.00;100797.00;5317689;28;20425;-69
2022/12/25 20:26:04;;;;;;;19.27;17.37;;;;;;;9.16;100.00;100795.41;5315851;28;20066;-69
2022/12/25 20:28:36;;;;;;;19.20;17.40;;;;;;;9.26;100.00;100800.97;5316903;27;20470;-68
2022/12/25 20:31:12;;;;;;;17.73;15.93;;;;;;;9.26;100.00;100790.53;5317230;27;20031;-69
2022/12/25 20:33:44;;;;;;;18.87;17.07;;;;;;;9.25;100.00;100804.50;5317217;28;20110;-70
2022/12/25 20:36:17;;;;;;;18.87;17.07;;;;;;;9.14;100.00;100786.81;5313539;28;20118;-69
2022/12/25 20:38:48;;;;;;;18.20;16.40;;;;;;;9.23;100.00;100797.69;5316521;27;20359;-71
2022/12/25 20:41:21;;;;;;;18.73;16.73;;;;;;;9.24;100.00;100812.44;5317494;28;20046;-71
2022/12/25 20:43:52;;;;;;;20.97;18.77;;;;;;;9.22;100.00;100814.28;5316775;28;20061;-70
2022/12/25 20:46:24;;;;;;;19.33;17.30;;;;;;;9.24;100.00;100812.44;5316260;28;20036;-70
2022/12/25 20:48:55;;;;;;;19.30;17.30;;;;;;;9.24;100.00;100820.28;5316184;28;20028;-70
2022/12/25 20:51:27;;;;;;;19.53;17.63;;;;;;;9.23;100.00;100821.22;5317501;28;20106;-70
2022/12/25 20:53:58;;;;;;;19.40;17.37;;;;;;;9.10;100.00;100790.53;5308750;28;20469;-69
2022/12/25 20:56:30;;;;;;;19.77;16.97;;;;;;;9.23;100.00;100811.63;5296477;28;20024;-69
2022/12/25 20:59:01;;;;;;;17.83;16.13;;;;;;;9.23;100.00;100810.75;5316808;28;20076;-69
2022/12/25 21:01:32;;;;;;;18.27;16.47;;;;;;;9.25;100.00;100814.13;5317328;28;20040;-69
2022/12/25 21:04:04;;;;;;;18.20;16.30;;;;;;;9.23;100.00;100814.22;5315747;28;20051;-68
2022/12/25 21:06:35;;;;;;;17.60;15.80;;;;;;;9.22;100.00;100814.28;5303686;28;20036;-70
2022/12/25 21:09:06;;;;;;;17.97;16.07;;;;;;;9.24;100.00;100812.44;5295401;28;20032;-70
2022/12/25 21:11:38;;;;;;;17.37;15.57;;;;;;;9.23;100.00;100816.00;5296026;28;20034;-69
2022/12/25 21:14:09;;;;;;;16.30;14.60;;;;;;;9.23;100.00;100816.00;5295920;28;20028;-69
2022/12/25 21:16:42;;;;;;;17.73;15.80;;;;;;;9.25;100.00;100830.63;5315614;28;20053;-69
2022/12/25 21:19:13;;;;;;;17.23;15.43;;;;;;;9.24;100.00;100838.56;5315942;28;20377;-69
2022/12/25 21:21:47;;;;;;;21.23;17.33;;;;;;;9.26;100.00;100844.56;5316457;28;20023;-69
2022/12/25 21:24:19;;;;;;;18.65;16.75;;;;;;;9.27;100.00;100844.47;5315954;28;20556;-70
2022/12/25 21:26:50;;;;;;;20.03;17.53;;;;;;;9.24;100.00;100855.09;5316550;28;20035;-70
2022/12/25 21:29:23;;;;;;;17.87;16.00;;;;;;;9.27;100.00;100846.22;5317132;28;20019;-69
2022/12/25 21:34:48;;;;;;;19.80;16.97;;;;;;;9.28;100.00;100851.41;5267348;28;20059;-71
2022/12/25 21:37:19;;;;;;;21.90;17.47;;;;;;;9.28;100.00;100858.38;5296308;28;20063;-71
2022/12/25 21:39:51;;;;;;;21.13;16.37;;;;;;;9.27;100.00;100854.06;5296378;28;20024;-70
2022/12/25 21:42:23;;;;;;;19.63;16.33;;;;;;;9.28;100.00;100864.47;5296502;28;20086;-70
2022/12/25 21:44:54;;;;;;;20.37;16.53;;;;;;;9.28;100.00;100876.69;5296210;28;20031;-70
2022/12/25 21:47:26;;;;;;;27.33;23.10;;;;;;;9.29;100.00;100867.91;5294982;28;20415;-71
2022/12/25 21:52:47;;;;;;;18.53;15.90;;;;;;;9.30;100.00;100869.63;5317452;28;20485;-70
2022/12/25 21:55:18;;;;;;;18.60;15.77;;;;;;;9.29;100.00;100873.13;5316516;28;20024;-70
2022/12/25 21:57:50;;;;;;;20.07;17.07;;;;;;;9.31;100.00;100871.28;5305457;28;20023;-70